createdAt,value
2018-08-23T00:00:43.177Z,11.40
2018-08-23T00:03:17.026Z,12.43
2018-08-23T00:05:51.093Z,11.10
2018-08-23T00:08:19.990Z,11.80
2018-08-23T00:10:49.148Z,11.13
2018-08-23T00:13:17.826Z,10.77
2018-08-23T00:15:46.209Z,11.80
2018-08-23T00:18:14.827Z,11.27
2018-08-23T00:20:43.239Z,13.17
2018-08-23T00:23:11.662Z,12.10
2018-08-23T00:25:40.122Z,12.57
2018-08-23T00:28:09.140Z,13.03
2018-08-23T00:30:37.869Z,13.43
2018-08-23T00:33:06.649Z,11.47
2018-08-23T00:35:36.877Z,13.00
2018-08-23T00:38:06.055Z,11.13
2018-08-23T00:40:39.533Z,11.07
2018-08-23T00:43:09.076Z,9.73
2018-08-23T00:45:38.201Z,11.97
2018-08-23T00:48:06.652Z,11.40
2018-08-23T00:50:51.197Z,11.37
2018-08-23T00:53:19.599Z,10.60
2018-08-23T00:55:47.998Z,10.13
2018-08-23T00:58:16.647Z,9.97
2018-08-23T01:00:53.223Z,10.53
2018-08-23T01:03:21.890Z,9.97
2018-08-23T01:05:50.488Z,9.30
2018-08-23T01:08:24.669Z,8.57
2018-08-23T01:10:53.140Z,10.77
2018-08-23T01:13:22.247Z,8.53
2018-08-23T01:15:50.716Z,10.20
2018-08-23T01:18:20.951Z,11.43
2018-08-23T01:20:51.737Z,8.73
2018-08-23T01:23:20.287Z,8.20
2018-08-23T01:25:50.118Z,8.80
2018-08-23T01:28:18.841Z,8.77
2018-08-23T01:30:47.985Z,8.80
2018-08-23T01:33:21.565Z,9.30
2018-08-23T01:35:51.290Z,8.00
2018-08-23T01:38:19.673Z,8.00
2018-08-23T01:40:48.070Z,7.77
2018-08-23T01:43:16.673Z,8.30
2018-08-23T01:45:45.213Z,6.90
2018-08-23T01:48:13.622Z,8.33
2018-08-23T01:50:42.059Z,8.83
2018-08-23T01:53:10.529Z,7.57
2018-08-23T01:55:39.105Z,8.67
2018-08-23T01:58:07.489Z,7.90
2018-08-23T02:00:36.743Z,7.63
2018-08-23T02:03:05.508Z,8.70
2018-08-23T02:05:34.746Z,8.40
2018-08-23T02:08:03.307Z,10.27
2018-08-23T02:10:31.722Z,6.00
2018-08-23T02:13:00.356Z,7.73
2018-08-23T02:16:03.252Z,6.90
2018-08-23T02:18:32.344Z,5.63
2018-08-23T02:21:06.948Z,6.10
2018-08-23T02:23:57.863Z,5.90
2018-08-23T02:26:26.304Z,6.00
2018-08-23T02:28:55.012Z,8.70
2018-08-23T02:31:23.453Z,7.70
2018-08-23T02:33:51.997Z,6.23
2018-08-23T02:36:21.995Z,6.47
2018-08-23T02:39:00.389Z,6.40
2018-08-23T02:41:30.061Z,5.80
2018-08-23T02:43:58.505Z,6.77
2018-08-23T02:46:26.989Z,6.00
2018-08-23T02:48:55.591Z,6.73
2018-08-23T02:51:31.684Z,6.87
2018-08-23T02:54:00.099Z,7.23
2018-08-23T02:56:29.908Z,7.20
2018-08-23T02:59:03.737Z,6.30
2018-08-23T03:01:33.584Z,6.13
2018-08-23T03:04:12.595Z,5.27
2018-08-23T03:06:56.139Z,6.27
2018-08-23T03:09:30.440Z,6.07
2018-08-23T03:12:00.126Z,7.93
2018-08-23T03:14:29.265Z,5.63
2018-08-23T03:17:31.543Z,6.03
2018-08-23T03:20:01.562Z,8.43
2018-08-23T03:22:30.936Z,6.87
2018-08-23T03:25:01.512Z,5.80
2018-08-23T03:27:30.583Z,6.77
2018-08-23T03:29:59.277Z,5.50
2018-08-23T03:32:27.929Z,6.87
2018-08-23T03:34:56.744Z,9.10
2018-08-23T03:37:25.548Z,7.20
2018-08-23T03:39:53.957Z,9.23
2018-08-23T03:42:22.509Z,9.27
2018-08-23T03:44:51.796Z,8.03
2018-08-23T03:47:20.351Z,10.73
2018-08-23T03:49:49.077Z,8.07
2018-08-23T03:52:18.943Z,7.97
2018-08-23T03:55:00.497Z,8.83
2018-08-23T03:57:34.399Z,8.40
2018-08-23T04:00:03.048Z,10.23
2018-08-23T04:02:31.694Z,10.10
2018-08-23T04:05:06.585Z,9.43
2018-08-23T04:07:35.785Z,9.37
2018-08-23T04:10:05.126Z,15.17
2018-08-23T04:12:35.119Z,10.80
2018-08-23T04:15:17.074Z,10.77
2018-08-23T04:17:46.204Z,12.00
2018-08-23T04:20:14.716Z,10.37
2018-08-23T04:22:43.238Z,10.80
2018-08-23T04:25:11.641Z,12.73
2018-08-23T04:27:40.204Z,11.50
2018-08-23T04:30:09.197Z,11.77
2018-08-23T04:32:42.424Z,10.83
2018-08-23T04:35:18.380Z,11.87
2018-08-23T04:37:48.172Z,11.00
2018-08-23T04:40:16.824Z,8.73
2018-08-23T04:42:45.272Z,10.23
2018-08-23T04:45:23.224Z,9.97
2018-08-23T04:47:57.679Z,11.37
2018-08-23T04:50:26.656Z,11.27
2018-08-23T04:52:55.410Z,11.67
2018-08-23T04:55:24.590Z,11.23
2018-08-23T04:57:53.177Z,9.43
2018-08-23T05:00:21.576Z,10.43
2018-08-23T05:02:50.095Z,10.27
2018-08-23T05:05:19.088Z,8.80
2018-08-23T05:07:47.638Z,9.43
2018-08-23T05:10:17.481Z,10.60
2018-08-23T05:12:45.957Z,10.83
2018-08-23T05:15:14.412Z,11.57
2018-08-23T05:17:42.825Z,10.77
2018-08-23T05:20:11.353Z,10.53
2018-08-23T05:22:42.452Z,11.30
2018-08-23T05:25:14.511Z,8.97
2018-08-23T05:27:59.800Z,8.90
2018-08-23T05:30:29.647Z,10.23
2018-08-23T05:33:03.374Z,9.27
2018-08-23T05:35:32.179Z,9.90
2018-08-23T05:38:01.654Z,9.37
2018-08-23T05:41:32.985Z,10.47
2018-08-23T05:44:07.761Z,8.07
2018-08-23T05:46:48.716Z,8.77
2018-08-23T05:49:17.975Z,6.53
2018-08-23T05:51:46.381Z,7.07
2018-08-23T05:54:15.156Z,7.70
2018-08-23T05:56:50.273Z,8.57
2018-08-23T05:59:19.340Z,11.37
2018-08-23T06:01:48.249Z,9.50
2018-08-23T06:04:22.499Z,9.53
2018-08-23T06:06:51.506Z,6.63
2018-08-23T06:09:19.900Z,8.70
2018-08-23T06:11:48.832Z,7.37
2018-08-23T06:14:17.848Z,7.77
2018-08-23T06:16:58.743Z,8.20
2018-08-23T06:19:28.307Z,7.00
2018-08-23T06:21:57.116Z,9.30
2018-08-23T06:24:29.796Z,7.77
2018-08-23T06:27:02.403Z,6.83
2018-08-23T06:29:33.993Z,6.97
2018-08-23T06:32:13.600Z,6.70
2018-08-23T06:34:51.984Z,7.87
2018-08-23T06:37:21.875Z,9.73
2018-08-23T06:39:50.581Z,6.90
2018-08-23T06:42:19.755Z,7.57
2018-08-23T06:44:54.191Z,7.80
2018-08-23T06:47:25.001Z,21.20
2018-08-23T06:49:55.010Z,11.17
2018-08-23T06:52:35.876Z,7.40
2018-08-23T06:55:05.631Z,7.83
2018-08-23T06:57:43.525Z,10.03
2018-08-23T07:00:12.450Z,9.23
2018-08-23T07:02:46.364Z,11.77
2018-08-23T07:05:15.027Z,12.70
2018-08-23T07:07:43.969Z,9.73
2018-08-23T07:10:13.204Z,8.97
2018-08-23T07:12:41.668Z,7.13
2018-08-23T07:15:10.257Z,7.23
2018-08-23T07:17:38.997Z,7.17
2018-08-23T07:20:09.372Z,7.97
2018-08-23T07:22:38.332Z,9.10
2018-08-23T07:25:11.886Z,9.07
2018-08-23T07:27:40.388Z,6.27
2018-08-23T07:30:14.498Z,6.17
2018-08-23T07:32:44.556Z,7.90
2018-08-23T07:35:15.547Z,10.13
2018-08-23T07:37:45.703Z,7.07
2018-08-23T07:40:20.175Z,12.43
2018-08-23T07:42:50.447Z,8.13
2018-08-23T07:45:19.321Z,7.47
2018-08-23T07:47:49.422Z,6.27
2018-08-23T07:50:18.155Z,7.67
2018-08-23T07:52:49.916Z,7.03
2018-08-23T07:55:18.503Z,14.23
2018-08-23T07:57:47.267Z,6.57
2018-08-23T08:00:31.082Z,7.33
2018-08-23T08:02:59.488Z,7.47
2018-08-23T08:05:31.075Z,6.63
2018-08-23T08:08:00.147Z,8.57
2018-08-23T08:10:35.948Z,6.73
2018-08-23T08:13:04.665Z,11.60
2018-08-23T08:15:33.381Z,6.87
2018-08-23T08:18:11.038Z,10.93
2018-08-23T08:20:41.769Z,7.43
2018-08-23T08:23:10.277Z,7.47
2018-08-23T08:25:38.852Z,10.30
2018-08-23T08:28:14.108Z,7.53
2018-08-23T08:30:48.602Z,7.77
2018-08-23T08:33:21.350Z,9.63
2018-08-23T08:35:50.871Z,7.83
2018-08-23T08:38:19.777Z,8.20
2018-08-23T08:40:51.831Z,6.30
2018-08-23T08:43:20.623Z,8.07
2018-08-23T08:45:53.807Z,6.97
2018-08-23T08:48:28.201Z,6.67
2018-08-23T08:51:13.383Z,7.43
2018-08-23T08:53:42.448Z,8.03
2018-08-23T08:56:11.297Z,7.73
2018-08-23T08:58:40.698Z,6.47
2018-08-23T09:01:09.487Z,9.73
2018-08-23T09:03:38.872Z,8.00
2018-08-23T09:06:08.695Z,12.20
2018-08-23T09:08:38.272Z,8.00
2018-08-23T09:11:07.148Z,10.43
2018-08-23T09:13:41.027Z,10.47
2018-08-23T09:16:10.983Z,13.37
2018-08-23T09:18:41.849Z,11.30
2018-08-23T09:21:10.593Z,12.30
2018-08-23T09:23:40.139Z,8.93
2018-08-23T09:26:08.728Z,12.73
2018-08-23T09:28:37.241Z,14.47
2018-08-23T09:31:06.062Z,9.07
2018-08-23T09:33:34.526Z,12.80
2018-08-23T09:36:03.184Z,12.23
2018-08-23T09:38:31.748Z,12.17
2018-08-23T09:41:00.365Z,11.03
2018-08-23T09:43:29.372Z,9.70
2018-08-23T09:45:57.809Z,8.77
2018-08-23T09:48:26.508Z,15.03
2018-08-23T09:50:55.072Z,11.20
2018-08-23T09:53:23.633Z,8.93
2018-08-23T09:55:53.591Z,10.57
2018-08-23T09:58:52.993Z,10.40
2018-08-23T10:01:27.012Z,11.50
2018-08-23T10:04:00.928Z,13.53
2018-08-23T10:07:32.383Z,9.97
2018-08-23T10:10:06.850Z,10.10
2018-08-23T10:12:40.860Z,9.30
2018-08-23T10:15:15.063Z,10.70
2018-08-23T10:17:48.883Z,9.67
2018-08-23T10:20:23.284Z,10.20
2018-08-23T10:23:04.935Z,9.10
2018-08-23T10:25:38.264Z,11.33
2018-08-23T10:28:09.621Z,10.60
2018-08-23T10:30:38.937Z,9.73
2018-08-23T10:33:07.566Z,8.90
2018-08-23T10:35:37.302Z,9.03
2018-08-23T10:38:07.131Z,9.87
2018-08-23T10:40:35.822Z,9.77
2018-08-23T10:43:04.734Z,9.57
2018-08-23T10:45:33.505Z,10.10
2018-08-23T10:48:07.368Z,10.50
2018-08-23T10:50:36.047Z,10.53
2018-08-23T10:53:04.617Z,8.87
2018-08-23T10:55:33.868Z,8.60
2018-08-23T10:58:03.761Z,9.93
2018-08-23T11:00:32.414Z,8.93
2018-08-23T11:03:01.180Z,9.63
2018-08-23T11:05:29.840Z,10.60
2018-08-23T11:08:07.884Z,9.40
2018-08-23T11:10:41.556Z,8.67
2018-08-23T11:13:15.216Z,8.20
2018-08-23T11:15:43.591Z,8.13
2018-08-23T11:18:17.594Z,7.63
2018-08-23T11:20:47.208Z,8.10
2018-08-23T11:23:17.249Z,7.37
2018-08-23T11:25:49.778Z,7.80
2018-08-23T11:28:20.397Z,8.87
2018-08-23T11:30:49.235Z,10.17
2018-08-23T11:33:17.647Z,7.57
2018-08-23T11:35:46.052Z,7.53
2018-08-23T11:38:15.243Z,8.00
2018-08-23T11:40:43.714Z,7.23
2018-08-23T11:43:12.085Z,9.30
2018-08-23T11:45:40.469Z,8.23
2018-08-23T11:48:08.890Z,7.20
2018-08-23T11:50:37.325Z,6.77
2018-08-23T11:53:06.386Z,7.23
2018-08-23T11:55:34.798Z,7.10
2018-08-23T11:58:03.213Z,6.87
2018-08-23T12:00:32.167Z,6.27
2018-08-23T12:03:00.643Z,6.40
2018-08-23T12:05:29.016Z,7.20
2018-08-23T12:07:57.409Z,5.27
2018-08-23T12:10:25.936Z,5.20
2018-08-23T12:12:55.008Z,5.20
2018-08-23T12:15:26.480Z,5.10
2018-08-23T12:17:55.375Z,4.97
2018-08-23T12:20:23.799Z,5.00
2018-08-23T12:22:52.174Z,4.90
2018-08-23T12:25:20.677Z,5.40
2018-08-23T12:27:55.575Z,5.83
2018-08-23T12:30:24.068Z,4.40
2018-08-23T12:32:52.452Z,4.77
2018-08-23T12:35:21.827Z,5.20
2018-08-23T12:38:02.916Z,4.70
2018-08-23T12:40:38.056Z,4.37
2018-08-23T12:43:11.630Z,5.10
2018-08-23T12:45:43.022Z,4.80
2018-08-23T12:48:12.448Z,4.80
2018-08-23T12:50:41.836Z,4.43
2018-08-23T12:53:10.207Z,4.57
2018-08-23T12:55:38.640Z,4.13
2018-08-23T12:58:12.463Z,4.57
2018-08-23T13:00:42.154Z,3.63
2018-08-23T13:03:10.998Z,3.97
2018-08-23T13:05:39.768Z,3.40
2018-08-23T13:08:08.256Z,3.43
2018-08-23T13:10:37.292Z,4.03
2018-08-23T13:13:05.991Z,4.40
2018-08-23T13:15:34.376Z,3.80
2018-08-23T13:18:04.048Z,3.80
2018-08-23T13:20:32.509Z,3.87
2018-08-23T13:23:01.018Z,4.73
2018-08-23T13:25:29.409Z,3.00
2018-08-23T13:27:58.042Z,3.50
2018-08-23T13:30:26.435Z,4.33
2018-08-23T13:32:54.856Z,3.60
2018-08-23T13:35:24.648Z,4.10
2018-08-23T13:37:53.389Z,4.90
2018-08-23T13:40:21.812Z,4.37
2018-08-23T13:42:50.337Z,3.67
2018-08-23T13:45:18.783Z,3.87
2018-08-23T13:47:47.237Z,4.37
2018-08-23T13:50:15.792Z,4.50
2018-08-23T13:52:44.490Z,6.23
2018-08-23T13:55:13.076Z,9.37
2018-08-23T13:57:41.485Z,5.70
2018-08-23T14:00:14.146Z,7.13
2018-08-23T14:02:42.861Z,7.90
2018-08-23T14:05:11.207Z,6.47
2018-08-23T14:07:39.602Z,6.20
2018-08-23T14:10:08.201Z,5.73
2018-08-23T14:12:36.596Z,7.50
2018-08-23T14:15:05.313Z,5.43
2018-08-23T14:17:33.779Z,6.43
2018-08-23T14:20:02.217Z,6.73
2018-08-23T14:22:30.624Z,5.70
2018-08-23T14:24:59.031Z,5.70
2018-08-23T14:27:28.092Z,6.40
2018-08-23T14:29:56.456Z,7.70
2018-08-23T14:32:24.885Z,6.30
2018-08-23T14:34:53.255Z,7.43
2018-08-23T14:37:21.657Z,5.67
2018-08-23T14:39:50.070Z,6.87
2018-08-23T14:42:19.051Z,7.27
2018-08-23T14:44:47.528Z,5.50
2018-08-23T14:48:20.054Z,5.70
2018-08-23T14:50:53.589Z,4.70
2018-08-23T14:53:26.850Z,5.10
2018-08-23T14:56:00.549Z,6.97
2018-08-23T14:58:29.912Z,6.37
2018-08-23T15:00:58.323Z,6.27
2018-08-23T15:03:26.780Z,3.97
2018-08-23T15:05:55.248Z,6.17
2018-08-23T15:08:23.774Z,7.63
2018-08-23T15:10:52.276Z,5.93
2018-08-23T15:13:21.439Z,3.87
2018-08-23T15:15:51.680Z,7.47
2018-08-23T15:18:21.373Z,5.20
2018-08-23T15:20:50.885Z,5.33
2018-08-23T15:23:19.424Z,4.43
2018-08-23T15:25:47.860Z,5.93
2018-08-23T15:28:16.274Z,4.80
2018-08-23T15:30:45.509Z,3.07
2018-08-23T15:33:13.972Z,6.03
2018-08-23T15:35:42.398Z,4.03
2018-08-23T15:38:10.758Z,4.80
2018-08-23T15:40:39.240Z,5.27
2018-08-23T15:43:07.664Z,3.63
2018-08-23T15:45:36.173Z,5.17
2018-08-23T15:48:04.844Z,5.60
2018-08-23T15:50:33.149Z,3.73
2018-08-23T15:53:01.532Z,5.13
2018-08-23T15:55:30.459Z,4.33
2018-08-23T15:57:58.624Z,4.87
2018-08-23T16:00:31.251Z,5.20
2018-08-23T16:02:59.794Z,5.77
2018-08-23T16:05:28.320Z,4.50
2018-08-23T16:07:56.850Z,5.83
2018-08-23T16:10:25.252Z,5.30
2018-08-23T16:12:53.764Z,4.63
2018-08-23T16:15:24.159Z,5.70
2018-08-23T16:17:57.954Z,5.43
2018-08-23T16:20:31.812Z,4.97
2018-08-23T16:23:00.500Z,3.10
2018-08-23T16:25:28.989Z,6.63
2018-08-23T16:27:57.384Z,6.53
2018-08-23T16:30:25.892Z,5.77
2018-08-23T16:32:54.332Z,3.97
2018-08-23T16:35:22.748Z,5.47
2018-08-23T16:37:51.368Z,6.93
2018-08-23T16:40:25.172Z,7.13
2018-08-23T16:42:53.595Z,6.23
2018-08-23T16:45:22.004Z,6.67
2018-08-23T16:47:50.470Z,6.80
2018-08-23T16:50:18.985Z,3.83
2018-08-23T16:52:47.401Z,5.30
2018-08-23T16:55:16.172Z,6.10
2018-08-23T16:57:45.088Z,6.07
2018-08-23T17:00:13.536Z,3.77
2018-08-23T17:02:42.013Z,4.47
2018-08-23T17:05:10.393Z,5.80
2018-08-23T17:07:38.784Z,4.53
2018-08-23T17:10:07.255Z,8.03
2018-08-23T17:12:35.672Z,5.07
2018-08-23T17:15:04.210Z,4.00
2018-08-23T17:17:34.666Z,4.20
2018-08-23T17:20:03.032Z,7.77
2018-08-23T17:22:31.453Z,5.60
2018-08-23T17:25:00.028Z,6.83
2018-08-23T17:27:28.564Z,6.70
2018-08-23T17:29:56.994Z,5.60
2018-08-23T17:32:25.392Z,6.03
2018-08-23T17:34:53.786Z,7.37
2018-08-23T17:37:22.185Z,4.67
2018-08-23T17:39:50.720Z,7.23
2018-08-23T17:42:19.132Z,5.10
2018-08-23T17:44:47.840Z,7.07
2018-08-23T17:47:16.237Z,4.40
2018-08-23T17:49:44.623Z,5.47
2018-08-23T17:52:13.132Z,4.50
2018-08-23T17:54:41.501Z,5.20
2018-08-23T17:57:10.009Z,4.80
2018-08-23T17:59:39.136Z,5.60
2018-08-23T18:02:07.525Z,5.80
2018-08-23T18:04:36.064Z,3.93
2018-08-23T18:07:04.473Z,3.43
2018-08-23T18:09:32.898Z,4.60
2018-08-23T18:12:01.270Z,2.40
2018-08-23T18:14:29.656Z,4.67
2018-08-23T18:16:59.472Z,2.70
2018-08-23T18:19:28.113Z,3.27
2018-08-23T18:21:56.517Z,3.10
2018-08-23T18:24:25.585Z,2.67
2018-08-23T18:26:54.688Z,3.30
2018-08-23T18:29:23.265Z,2.90
2018-08-23T18:31:51.872Z,4.13
2018-08-23T18:34:20.434Z,6.77
2018-08-23T18:36:50.085Z,18.73
2018-08-23T18:39:18.649Z,17.50
2018-08-23T18:41:47.393Z,14.83
2018-08-23T18:44:15.883Z,25.80
2018-08-23T18:46:45.200Z,11.83
2018-08-23T18:49:14.047Z,10.97
2018-08-23T18:51:43.085Z,10.17
2018-08-23T18:54:11.972Z,9.70
2018-08-23T18:56:41.373Z,11.33
2018-08-23T18:59:12.527Z,6.37
2018-08-23T19:01:41.302Z,6.80
2018-08-23T19:04:10.448Z,10.60
2018-08-23T19:06:39.021Z,5.30
2018-08-23T19:09:13.820Z,5.70
2018-08-23T19:11:42.963Z,6.43
2018-08-23T19:14:11.793Z,8.63
2018-08-23T19:16:47.095Z,6.20
2018-08-23T19:19:15.874Z,6.33
2018-08-23T19:21:44.686Z,5.50
2018-08-23T19:24:13.146Z,9.97
2018-08-23T19:26:41.580Z,5.00
2018-08-23T19:29:13.673Z,2.87
2018-08-23T19:31:44.719Z,3.70
2018-08-23T19:34:18.537Z,3.97
2018-08-23T19:36:47.487Z,4.53
2018-08-23T19:39:16.477Z,5.73
2018-08-23T19:41:45.255Z,3.63
2018-08-23T19:44:13.803Z,4.87
2018-08-23T19:46:47.737Z,6.40
2018-08-23T19:49:21.670Z,6.23
2018-08-23T19:51:50.224Z,6.33
2018-08-23T19:54:18.984Z,5.40
2018-08-23T19:56:47.472Z,5.73
2018-08-23T19:59:16.054Z,6.17
2018-08-23T20:01:44.569Z,3.10
2018-08-23T20:04:14.111Z,5.23
2018-08-23T20:06:42.757Z,4.10
2018-08-23T20:09:11.240Z,4.23
2018-08-23T20:11:39.684Z,5.47
2018-08-23T20:14:08.335Z,4.87
2018-08-23T20:16:36.773Z,4.83
2018-08-23T20:19:06.617Z,5.37
2018-08-23T20:21:41.489Z,4.77
2018-08-23T20:24:09.983Z,10.33
2018-08-23T20:26:38.492Z,9.53
2018-08-23T20:29:07.906Z,7.63
2018-08-23T20:31:36.643Z,6.87
2018-08-23T20:34:05.138Z,7.73
2018-08-23T20:36:33.699Z,9.80
2018-08-23T20:39:02.192Z,9.93
2018-08-23T20:41:30.738Z,13.23
2018-08-23T20:43:59.421Z,8.13
2018-08-23T20:46:27.896Z,9.03
2018-08-23T20:48:56.379Z,10.73
2018-08-23T20:51:24.929Z,8.53
2018-08-23T20:53:53.339Z,6.07
2018-08-23T20:56:22.470Z,6.10
2018-08-23T20:58:51.108Z,6.13
2018-08-23T21:01:20.317Z,5.53
2018-08-23T21:03:49.022Z,8.97
2018-08-23T21:06:18.385Z,5.03
2018-08-23T21:08:47.082Z,4.87
2018-08-23T21:11:15.737Z,4.87
2018-08-23T21:13:44.593Z,6.63
2018-08-23T21:16:13.060Z,6.63
2018-08-23T21:18:41.658Z,6.17
2018-08-23T21:21:10.136Z,6.83
2018-08-23T21:23:38.937Z,5.33
2018-08-23T21:26:08.157Z,6.50
2018-08-23T21:28:36.877Z,5.47
2018-08-23T21:31:05.573Z,6.67
2018-08-23T21:33:34.774Z,5.10
2018-08-23T21:36:04.322Z,9.73
2018-08-23T21:38:32.836Z,13.60
2018-08-23T21:41:01.521Z,8.83
2018-08-23T21:43:29.952Z,5.77
2018-08-23T21:45:58.918Z,9.93
2018-08-23T21:48:38.643Z,10.00
2018-08-23T21:51:14.646Z,5.00
2018-08-23T21:53:43.312Z,4.23
2018-08-23T21:56:11.693Z,4.23
2018-08-23T21:58:40.152Z,6.13
2018-08-23T22:01:09.708Z,9.77
2018-08-23T22:03:38.660Z,6.13
2018-08-23T22:06:07.394Z,8.50
2018-08-23T22:08:35.859Z,35.07
2018-08-23T22:11:04.721Z,330.97
2018-08-23T22:13:33.345Z,362.27
2018-08-23T22:16:01.808Z,500.60
2018-08-23T22:18:30.379Z,440.47
2018-08-23T22:20:58.996Z,296.93
2018-08-23T22:23:27.521Z,283.47
2018-08-23T22:25:56.040Z,270.27
2018-08-23T22:28:24.539Z,219.37
2018-08-23T22:30:53.187Z,184.30
2018-08-23T22:33:21.600Z,160.47
2018-08-23T22:35:50.047Z,138.70
2018-08-23T22:38:18.473Z,121.47
2018-08-23T22:40:46.906Z,108.27
2018-08-23T22:43:15.454Z,96.17
2018-08-23T22:45:44.035Z,95.13
2018-08-23T22:48:12.650Z,88.87
2018-08-23T22:50:41.232Z,79.30
2018-08-23T22:53:16.477Z,70.20
2018-08-23T22:55:45.201Z,62.37
2018-08-23T22:58:13.873Z,63.80
2018-08-23T23:00:43.014Z,55.57
2018-08-23T23:03:16.929Z,51.03
2018-08-23T23:05:46.046Z,44.77
2018-08-23T23:08:14.538Z,39.90
2018-08-23T23:10:42.967Z,39.83
2018-08-23T23:13:11.461Z,40.50
2018-08-23T23:15:39.876Z,36.13
2018-08-23T23:18:08.432Z,29.80
2018-08-23T23:20:37.778Z,26.67
2018-08-23T23:23:06.264Z,28.47
2018-08-23T23:25:34.791Z,24.23
2018-08-23T23:28:03.271Z,22.43
2018-08-23T23:30:31.775Z,21.47
2018-08-23T23:33:00.260Z,18.47
2018-08-23T23:35:28.835Z,18.90
2018-08-23T23:37:57.244Z,17.67
2018-08-23T23:40:25.666Z,17.03
2018-08-23T23:42:54.067Z,15.70
2018-08-23T23:45:22.550Z,12.90
2018-08-23T23:47:50.975Z,14.20
2018-08-23T23:50:19.404Z,13.50
2018-08-23T23:52:47.848Z,15.13
2018-08-23T23:55:16.297Z,13.77
2018-08-23T23:57:44.737Z,10.57
